Time;durP1;ratioP1;P1;durP2;ratioP2;P2;SDS_P1;SDS_P2;PMS_P1;PMS_P2;Temp;Humidity;BMP_temperature;BMP_pressure;BME280_temperature;BME280_humidity;BME280_pressure;Samples;Min_cycle;Max_cycle;Signal;HPM_P1;HPM_P2
2023/05/10 00:00:04;;;;;;;8.52;5.07;;;;;;;11.95;100.00;100010.91;689093;28;1492;-63
2023/05/10 00:00:33;;;;;;;9.52;5.20;;;;;;;11.93;100.00;100016.16;689814;28;1073;-62
2023/05/10 00:00:53;;;;;;;9.93;5.13;;;;;;;11.92;100.00;100011.78;688835;28;1426;-62
2023/05/10 00:01:14;;;;;;;8.90;5.00;;;;;;;11.87;100.00;100013.63;687866;28;4368;-62
2023/05/10 00:01:34;;;;;;;8.90;5.38;;;;;;;11.85;100.00;100012.81;687627;28;1312;-62
2023/05/10 00:01:54;;;;;;;8.60;5.30;;;;;;;11.86;100.00;100017.13;685819;28;1476;-63
2023/05/10 00:02:15;;;;;;;8.60;5.10;;;;;;;11.89;100.00;100008.34;687376;28;1089;-62
2023/05/10 00:02:35;;;;;;;8.82;5.63;;;;;;;11.89;100.00;100018.84;687602;28;1240;-62
2023/05/10 00:02:56;;;;;;;9.17;5.17;;;;;;;11.92;100.00;100019.66;685629;28;1752;-63
2023/05/10 00:03:16;;;;;;;9.90;5.45;;;;;;;11.96;100.00;100007.38;687458;28;1263;-63
2023/05/10 00:03:37;;;;;;;9.33;5.17;;;;;;;12.01;100.00;100010.75;687244;28;1327;-62
2023/05/10 00:03:57;;;;;;;9.90;5.27;;;;;;;12.00;100.00;100008.19;684933;28;1518;-63
2023/05/10 00:04:17;;;;;;;9.50;5.23;;;;;;;11.96;100.00;100009.13;686905;28;4392;-63
2023/05/10 00:04:38;;;;;;;9.77;5.10;;;;;;;12.00;100.00;100006.41;687784;28;1481;-63
2023/05/10 00:04:58;;;;;;;9.97;5.03;;;;;;;11.99;100.00;100006.44;685870;28;1501;-63
2023/05/10 00:05:18;;;;;;;11.10;5.23;;;;;;;11.95;100.00;100010.03;687539;28;1236;-63
2023/05/10 00:05:41;;;;;;;10.18;5.25;;;;;;;12.00;100.00;100013.41;687560;28;1410;-64
2023/05/10 00:06:01;;;;;;;9.45;5.03;;;;;;;11.98;100.00;100007.38;685971;28;1522;-63
2023/05/10 00:06:22;;;;;;;9.80;5.50;;;;;;;12.01;100.00;100009.91;684773;28;1529;-63
2023/05/10 00:06:42;;;;;;;9.07;5.40;;;;;;;11.98;100.00;100010.84;684950;28;1332;-63
2023/05/10 00:07:02;;;;;;;8.85;5.00;;;;;;;12.10;100.00;100004.44;682107;28;4621;-61
2023/05/10 00:07:23;;;;;;;9.00;5.30;;;;;;;12.07;100.00;100012.38;687224;28;1129;-63
2023/05/10 00:07:45;;;;;;;9.27;5.30;;;;;;;12.04;100.00;100007.22;687429;28;1280;-63
2023/05/10 00:08:06;;;;;;;8.95;5.18;;;;;;;11.99;100.00;100006.44;686069;28;1702;-62
2023/05/10 00:08:28;;;;;;;9.90;5.70;;;;;;;11.99;100.00;100009.06;690145;28;2541;-62
2023/05/10 00:08:49;;;;;;;9.60;5.45;;;;;;;11.95;100.00;100013.53;689097;28;1696;-63
2023/05/10 00:09:09;;;;;;;10.50;5.18;;;;;;;11.96;100.00;100003.91;689837;28;1176;-63
2023/05/10 00:09:30;;;;;;;10.30;5.40;;;;;;;11.95;100.00;100007.41;689008;28;1189;-63
2023/05/10 00:09:50;;;;;;;10.32;5.32;;;;;;;11.97;100.00;100010.88;688701;28;1481;-63
2023/05/10 00:10:11;;;;;;;9.77;5.50;;;;;;;11.93;100.00;100008.28;688810;28;4461;-62
2023/05/10 00:10:31;;;;;;;10.07;5.38;;;;;;;11.97;100.00;100011.72;690042;28;1192;-62
2023/05/10 00:10:52;;;;;;;10.27;5.27;;;;;;;11.95;100.00;100004.78;688692;28;1620;-62
2023/05/10 00:11:13;;;;;;;9.40;5.13;;;;;;;11.97;100.00;100008.25;686836;28;884;-64
2023/05/10 00:11:33;;;;;;;10.40;5.47;;;;;;;11.96;100.00;100011.75;687735;28;1295;-62
2023/05/10 00:11:54;;;;;;;9.70;5.37;;;;;;;11.95;100.00;100010.03;689645;28;1470;-63
2023/05/10 00:12:14;;;;;;;9.80;5.38;;;;;;;11.94;100.00;100009.16;687327;28;1502;-62
2023/05/10 00:12:34;;;;;;;10.53;5.40;;;;;;;11.95;100.00;100012.63;688080;28;1224;-63
2023/05/10 00:12:55;;;;;;;10.95;5.25;;;;;;;11.92;100.00;100006.56;686148;28;1512;-63
2023/05/10 00:13:15;;;;;;;10.33;5.23;;;;;;;11.90;100.00;100007.47;684401;28;4577;-62
2023/05/10 00:13:36;;;;;;;9.30;5.30;;;;;;;11.88;100.00;100015.38;684406;28;1379;-62
2023/05/10 00:13:56;;;;;;;10.83;5.40;;;;;;;11.91;100.00;100010.06;683152;28;1295;-62
2023/05/10 00:14:17;;;;;;;10.40;4.97;;;;;;;11.94;100.00;100009.16;681843;28;1458;-63
2023/05/10 00:14:37;;;;;;;8.97;5.07;;;;;;;11.91;100.00;100010.06;681893;28;1177;-63
2023/05/10 00:15:00;;;;;;;8.73;5.30;;;;;;;11.89;100.00;100010.97;681220;28;1494;-63
2023/05/10 00:15:20;;;;;;;9.63;5.50;;;;;;;11.87;100.00;100013.63;687502;28;1347;-63
2023/05/10 00:15:41;;;;;;;9.43;5.20;;;;;;;11.85;100.00;100014.56;684220;28;1910;-63
2023/05/10 00:16:01;;;;;;;10.50;5.40;;;;;;;11.83;100.00;100009.34;683357;28;1524;-63
2023/05/10 00:16:21;;;;;;;10.80;5.20;;;;;;;11.84;100.00;100011.09;686479;28;4536;-63
2023/05/10 00:16:42;;;;;;;10.20;5.05;;;;;;;11.86;100.00;100016.28;687226;28;1473;-62
2023/05/10 00:17:03;;;;;;;10.13;5.17;;;;;;;11.95;100.00;100005.66;686138;28;1450;-63
2023/05/10 00:17:23;;;;;;;10.00;5.32;;;;;;;11.95;100.00;100004.78;687744;28;1184;-63
2023/05/10 00:17:43;;;;;;;10.00;5.63;;;;;;;11.92;100.00;100011.78;689441;28;1307;-63
2023/05/10 00:18:04;;;;;;;9.90;5.20;;;;;;;11.89;100.00;100004.00;688637;28;1120;-63
2023/05/10 00:18:24;;;;;;;9.83;5.13;;;;;;;11.88;100.00;100015.38;689106;28;1231;-63
2023/05/10 00:18:45;;;;;;;8.93;4.90;;;;;;;11.96;100.00;100006.50;689569;28;1291;-63
2023/05/10 00:19:05;;;;;;;8.73;5.00;;;;;;;11.93;100.00;100007.41;688392;28;4652;-63
2023/05/10 00:19:25;;;;;;;9.17;5.53;;;;;;;11.91;100.00;100003.97;690224;28;1184;-62
2023/05/10 00:19:46;;;;;;;9.65;5.65;;;;;;;11.99;100.00;100009.06;688615;28;3404;-62
2023/05/10 00:20:06;;;;;;;9.90;5.40;;;;;;;11.98;100.00;100002.97;688771;28;1447;-63
2023/05/10 00:20:27;;;;;;;9.77;5.40;;;;;;;11.97;100.00;100001.25;689965;28;1279;-63
2023/05/10 00:20:48;;;;;;;10.63;5.53;;;;;;;12.01;100.00;100005.53;689986;28;1275;-62
2023/05/10 00:21:08;;;;;;;10.23;5.53;;;;;;;11.98;100.00;100004.75;688526;28;2029;-62
2023/05/10 00:21:29;;;;;;;11.03;5.60;;;;;;;11.95;100.00;99999.53;689335;28;1201;-63
2023/05/10 00:21:49;;;;;;;9.97;5.43;;;;;;;11.94;100.00;100009.16;687041;28;1394;-63
2023/05/10 00:22:10;;;;;;;10.75;5.32;;;;;;;11.95;100.00;99999.53;689200;28;4427;-62
2023/05/10 00:22:31;;;;;;;9.80;5.40;;;;;;;11.91;100.00;99999.59;689797;28;1160;-63
2023/05/10 00:22:51;;;;;;;9.23;5.00;;;;;;;11.91;100.00;99996.97;688565;28;1275;-63
2023/05/10 00:23:12;;;;;;;9.67;5.30;;;;;;;11.98;100.00;100002.97;690297;28;1046;-63
2023/05/10 00:23:32;;;;;;;10.07;6.28;;;;;;;11.99;100.00;100003.81;690311;28;1204;-63
2023/05/10 00:23:53;;;;;;;10.37;5.80;;;;;;;11.96;100.00;100006.50;688109;28;1568;-63
2023/05/10 00:24:13;;;;;;;9.23;4.70;;;;;;;11.96;100.00;100004.75;687478;28;1418;-63
2023/05/10 00:24:33;;;;;;;10.70;5.40;;;;;;;11.92;100.00;100003.06;687394;28;1351;-63
2023/05/10 00:24:54;;;;;;;11.10;5.73;;;;;;;11.95;100.00;99999.53;683058;28;1676;-63
2023/05/10 00:25:14;;;;;;;10.93;5.95;;;;;;;11.95;100.00;100002.16;683956;28;4376;-63
2023/05/10 00:25:34;;;;;;;10.77;5.97;;;;;;;11.92;100.00;100000.44;684706;28;1066;-63
2023/05/10 00:25:56;;;;;;;11.00;5.72;;;;;;;11.93;100.00;100002.16;682846;28;1506;-62
2023/05/10 00:26:16;;;;;;;11.30;5.78;;;;;;;12.05;100.00;100001.94;687555;28;1209;-62
2023/05/10 00:26:39;;;;;;;10.50;5.30;;;;;;;12.16;100.00;100003.50;685073;28;1280;-62
2023/05/10 00:27:00;;;;;;;10.70;5.03;;;;;;;12.11;100.00;100011.44;684401;28;1730;-63
2023/05/10 00:27:20;;;;;;;10.23;5.63;;;;;;;12.07;100.00;100001.91;686103;28;2154;-62
2023/05/10 00:27:41;;;;;;;10.82;5.55;;;;;;;12.04;100.00;100007.22;685009;28;1232;-63
2023/05/10 00:28:01;;;;;;;11.23;5.83;;;;;;;12.01;100.00;100007.28;682556;28;1459;-62
2023/05/10 00:28:22;;;;;;;9.90;5.60;;;;;;;11.98;100.00;100005.59;684314;28;4503;-63
2023/05/10 00:28:42;;;;;;;10.27;5.67;;;;;;;12.01;100.00;100008.13;684725;28;1578;-63
2023/05/10 00:29:02;;;;;;;10.95;5.90;;;;;;;12.04;100.00;100004.59;680460;28;1145;-63
2023/05/10 00:29:23;;;;;;;10.40;5.97;;;;;;;12.01;100.00;100005.53;682075;28;1256;-63
2023/05/10 00:29:44;;;;;;;10.65;6.10;;;;;;;12.01;100.00;100002.06;684526;28;1134;-63
2023/05/10 00:30:06;;;;;;;10.77;5.63;;;;;;;12.07;100.00;100005.41;682910;28;1774;-63
2023/05/10 00:30:26;;;;;;;10.20;5.70;;;;;;;12.11;100.00;100008.81;684435;28;1395;-63
2023/05/10 00:30:47;;;;;;;11.70;6.18;;;;;;;12.13;100.00;100003.53;684731;28;1233;-63
2023/05/10 00:31:07;;;;;;;10.48;5.57;;;;;;;12.09;100.00;99994.88;681161;28;4627;-63
2023/05/10 00:31:27;;;;;;;10.60;5.70;;;;;;;12.05;100.00;100004.56;681460;28;1318;-63
2023/05/10 00:31:48;;;;;;;11.00;5.67;;;;;;;12.02;100.00;100006.41;680643;29;1283;-63
2023/05/10 00:32:08;;;;;;;10.57;5.90;;;;;;;12.05;100.00;100001.09;680232;29;1519;-63
2023/05/10 00:32:28;;;;;;;10.23;5.60;;;;;;;12.09;100.00;100003.59;680433;28;1281;-62
2023/05/10 00:32:51;;;;;;;10.48;5.97;;;;;;;12.15;100.00;100002.59;683150;28;1349;-63
2023/05/10 00:33:12;;;;;;;10.25;5.72;;;;;;;12.15;100.00;99999.13;678648;29;1286;-63
2023/05/10 00:33:32;;;;;;;9.48;5.60;;;;;;;12.14;100.00;100000.88;679269;29;1336;-63
2023/05/10 00:33:52;;;;;;;9.07;5.53;;;;;;;12.11;100.00;100000.94;680547;28;1574;-63
2023/05/10 00:34:13;;;;;;;10.60;5.85;;;;;;;12.06;100.00;100003.69;677113;29;4336;-63
2023/05/10 00:34:33;;;;;;;10.40;5.63;;;;;;;12.03;100.00;100002.88;678580;29;1372;-63
2023/05/10 00:34:54;;;;;;;10.07;5.68;;;;;;;12.04;100.00;99996.75;677167;29;1607;-63
2023/05/10 00:35:17;;;;;;;10.02;6.18;;;;;;;12.00;100.00;99998.53;682542;28;1233;-63
2023/05/10 00:35:38;;;;;;;9.68;5.60;;;;;;;11.99;100.00;100001.19;680607;29;1471;-63
2023/05/10 00:35:58;;;;;;;9.97;5.80;;;;;;;11.97;100.00;100000.38;682191;28;1918;-63
2023/05/10 00:36:18;;;;;;;9.80;5.83;;;;;;;11.93;100.00;100000.44;685121;28;1454;-63
2023/05/10 00:36:39;;;;;;;10.17;5.80;;;;;;;11.99;100.00;100001.19;683587;28;1283;-63
2023/05/10 00:37:01;;;;;;;9.90;6.00;;;;;;;12.03;100.00;100000.25;684178;28;1560;-63
2023/05/10 00:37:21;;;;;;;10.57;6.03;;;;;;;12.00;100.00;100005.56;684672;28;4497;-63
2023/05/10 00:37:43;;;;;;;10.52;5.93;;;;;;;11.98;100.00;100002.97;687055;28;1421;-63
2023/05/10 00:38:03;;;;;;;11.13;6.10;;;;;;;11.97;100.00;100003.88;685901;28;1655;-63
2023/05/10 00:38:24;;;;;;;11.27;5.73;;;;;;;11.97;100.00;100003.00;686633;28;1173;-63
2023/05/10 00:38:44;;;;;;;10.50;5.53;;;;;;;11.95;100.00;99999.53;684545;28;1257;-63
2023/05/10 00:39:05;;;;;;;10.67;5.43;;;;;;;12.00;100.00;99997.69;683384;28;1551;-63
2023/05/10 00:39:26;;;;;;;10.52;5.95;;;;;;;11.97;100.00;100003.00;684824;28;1314;-64
2023/05/10 00:39:46;;;;;;;10.88;6.07;;;;;;;11.98;100.00;99999.50;684365;28;1280;-63
2023/05/10 00:40:07;;;;;;;12.13;6.43;;;;;;;12.01;100.00;99994.19;683454;28;4603;-63
2023/05/10 00:40:28;;;;;;;11.95;6.57;;;;;;;11.99;100.00;99998.59;687226;28;1302;-63
2023/05/10 00:40:52;;;;;;;10.77;6.18;;;;;;;11.96;100.00;100001.28;688397;28;1579;-63
2023/05/10 00:41:20;;;;;;;10.07;5.57;;;;;;;11.95;100.00;99999.53;684240;28;1257;-63
2023/05/10 00:41:41;;;;;;;11.60;6.13;;;;;;;11.93;100.00;99999.53;683869;28;1474;-63
2023/05/10 00:42:01;;;;;;;11.23;6.13;;;;;;;11.92;100.00;100001.31;683264;28;1613;-63
2023/05/10 00:42:22;;;;;;;11.88;6.50;;;;;;;11.93;100.00;99997.81;682676;28;4963;-63
2023/05/10 00:42:43;;;;;;;10.93;6.28;;;;;;;11.97;100.00;99998.63;686811;28;1786;-63
2023/05/10 00:43:03;;;;;;;10.77;6.00;;;;;;;11.95;100.00;100007.41;685726;28;4474;-63
2023/05/10 00:43:23;;;;;;;10.95;5.88;;;;;;;11.93;100.00;99997.81;684473;28;1151;-63
2023/05/10 00:43:44;;;;;;;11.60;6.07;;;;;;;12.03;100.00;100002.88;681445;28;1241;-63
2023/05/10 00:44:05;;;;;;;11.43;6.50;;;;;;;12.05;100.00;100001.94;680745;28;1635;-63
2023/05/10 00:44:25;;;;;;;10.90;6.27;;;;;;;12.04;100.00;99996.75;684804;28;1288;-63
2023/05/10 00:44:46;;;;;;;10.85;6.30;;;;;;;12.02;100.00;99998.53;687046;28;1251;-63
2023/05/10 00:45:07;;;;;;;10.95;6.07;;;;;;;11.99;100.00;100003.81;683018;28;1542;-63
2023/05/10 00:45:27;;;;;;;10.70;6.05;;;;;;;11.96;100.00;99998.66;681970;29;1252;-63
2023/05/10 00:45:48;;;;;;;12.20;6.30;;;;;;;12.00;100.00;99998.53;682125;29;1325;-63
2023/05/10 00:46:09;;;;;;;12.05;6.50;;;;;;;12.05;100.00;100004.56;677963;29;4441;-62
2023/05/10 00:46:30;;;;;;;12.37;6.30;;;;;;;12.02;100.00;100007.25;678465;29;1237;-63
2023/05/10 00:46:52;;;;;;;10.73;5.80;;;;;;;11.98;100.00;100002.13;676572;29;1673;-63
2023/05/10 00:47:13;;;;;;;10.83;6.03;;;;;;;11.96;100.00;99996.88;679887;29;1552;-63
2023/05/10 00:47:35;;;;;;;12.00;6.15;;;;;;;11.98;100.00;100005.59;675922;29;1461;-63
2023/05/10 00:47:56;;;;;;;12.60;6.47;;;;;;;12.04;100.00;100004.59;675631;29;1222;-63
2023/05/10 00:48:16;;;;;;;12.15;6.15;;;;;;;12.02;100.00;100001.16;679649;29;1399;-63
2023/05/10 00:48:37;;;;;;;12.00;6.40;;;;;;;11.98;100.00;99997.72;682071;28;1237;-63
2023/05/10 00:48:58;;;;;;;10.63;5.90;;;;;;;11.98;100.00;100008.22;676864;28;1601;-63
2023/05/10 00:49:19;;;;;;;11.23;6.18;;;;;;;11.96;100.00;99990.81;679851;29;4428;-63
2023/05/10 00:49:40;;;;;;;10.63;6.30;;;;;;;11.91;100.00;100001.34;682547;28;1396;-63
2023/05/10 00:50:01;;;;;;;11.73;6.85;;;;;;;11.95;100.00;100000.44;677884;29;1595;-63
2023/05/10 00:50:23;;;;;;;11.63;6.10;;;;;;;11.97;100.00;100005.63;678821;29;1439;-63
2023/05/10 00:50:44;;;;;;;10.85;6.25;;;;;;;11.97;100.00;99997.78;680170;28;1142;-63
2023/05/10 00:51:05;;;;;;;11.20;6.68;;;;;;;12.00;100.00;99998.53;684391;28;1680;-63
2023/05/10 00:51:25;;;;;;;12.53;6.83;;;;;;;12.07;100.00;99997.53;689155;28;1145;-63
2023/05/10 00:51:46;;;;;;;11.52;6.35;;;;;;;12.12;100.00;99992.19;689508;28;1152;-63
2023/05/10 00:52:06;;;;;;;11.80;6.50;;;;;;;12.10;100.00;100007.06;688142;28;4675;-62
2023/05/10 00:52:28;;;;;;;10.38;5.85;;;;;;;12.04;100.00;100007.22;689021;28;1307;-63
2023/05/10 00:52:49;;;;;;;10.65;6.20;;;;;;;12.09;100.00;100002.75;687296;28;1283;-62
2023/05/10 00:53:10;;;;;;;11.55;6.53;;;;;;;12.08;100.00;99996.63;686110;28;1435;-63
2023/05/10 00:53:31;;;;;;;11.68;6.65;;;;;;;12.01;100.00;100000.28;687063;28;1299;-63
2023/05/10 00:53:52;;;;;;;12.40;6.63;;;;;;;11.96;100.00;100003.91;683226;28;1545;-62
2023/05/10 00:54:15;;;;;;;11.63;6.35;;;;;;;12.02;100.00;100006.41;684718;28;1282;-62
2023/05/10 00:54:36;;;;;;;11.32;6.20;;;;;;;12.01;100.00;99996.81;684796;28;1233;-62
2023/05/10 00:54:56;;;;;;;12.38;6.63;;;;;;;12.01;100.00;100002.06;683903;28;1506;-62
2023/05/10 00:55:18;;;;;;;12.87;6.77;;;;;;;11.98;100.00;100000.34;683747;28;4297;-62
2023/05/10 00:55:38;;;;;;;13.27;6.93;;;;;;;11.97;100.00;99996.00;686070;28;1361;-62
2023/05/10 00:55:59;;;;;;;12.13;6.77;;;;;;;12.03;100.00;99998.50;685388;28;1977;-62
2023/05/10 00:56:22;;;;;;;12.70;6.90;;;;;;;12.09;100.00;100000.97;688072;28;1390;-62
2023/05/10 00:56:48;;;;;;;12.93;6.63;;;;;;;12.07;100.00;100001.91;687932;28;1251;-61
2023/05/10 00:57:09;;;;;;;12.25;6.95;;;;;;;12.05;100.00;100001.09;686773;28;1588;-62
2023/05/10 00:57:30;;;;;;;12.38;6.93;;;;;;;12.03;100.00;99998.50;686809;28;1319;-62
2023/05/10 00:57:51;;;;;;;12.93;6.78;;;;;;;12.01;100.00;100000.28;689924;28;1315;-62
2023/05/10 00:58:12;;;;;;;12.93;6.53;;;;;;;11.99;100.00;99996.84;689027;28;4442;-62
2023/05/10 00:58:33;;;;;;;13.90;6.15;;;;;;;12.02;100.00;100001.16;689622;28;1433;-62
2023/05/10 00:58:56;;;;;;;14.35;6.70;;;;;;;12.04;100.00;100004.59;688678;28;1263;-62
2023/05/10 00:59:17;;;;;;;13.80;6.65;;;;;;;12.11;100.00;100000.94;691020;28;1442;-62
2023/05/10 00:59:38;;;;;;;11.63;6.68;;;;;;;12.18;100.00;99996.44;690319;28;1259;-62
2023/05/10 00:59:59;;;;;;;11.70;6.97;;;;;;;12.14;100.00;100003.50;689028;28;1418;-62
2023/05/10 01:00:20;;;;;;;11.88;6.88;;;;;;;12.09;100.00;100002.75;689392;28;1227;-62
2023/05/10 01:00:42;;;;;;;11.80;6.50;;;;;;;12.04;100.00;99994.13;687328;28;1421;-62
2023/05/10 01:01:03;;;;;;;12.77;6.50;;;;;;;12.03;100.00;99997.63;685496;28;4409;-62
2023/05/10 01:01:24;;;;;;;11.27;6.28;;;;;;;11.99;100.00;100001.19;683890;28;1301;-62
2023/05/10 01:01:46;;;;;;;11.68;6.57;;;;;;;11.97;100.00;99998.63;682543;28;1180;-62
2023/05/10 01:02:07;;;;;;;12.20;6.50;;;;;;;12.05;100.00;99995.84;683048;28;1584;-61
2023/05/10 01:02:27;;;;;;;12.53;6.83;;;;;;;12.09;100.00;99998.38;684864;28;1280;-62
2023/05/10 01:02:47;;;;;;;11.67;6.83;;;;;;;12.07;100.00;99997.53;684379;28;1324;-62
2023/05/10 01:03:08;;;;;;;12.10;6.57;;;;;;;12.02;100.00;100002.00;684007;28;1636;-62
2023/05/10 01:03:28;;;;;;;11.23;6.30;;;;;;;12.02;100.00;99994.16;684797;28;1295;-62
2023/05/10 01:03:49;;;;;;;11.20;6.50;;;;;;;12.11;100.00;100000.09;682973;28;1170;-62
2023/05/10 01:04:12;;;;;;;11.77;6.73;;;;;;;12.06;100.00;100001.06;682554;28;4357;-62
2023/05/10 01:04:34;;;;;;;11.82;6.05;;;;;;;12.04;100.00;99996.75;680570;28;2140;-62
2023/05/10 01:04:55;;;;;;;11.73;5.93;;;;;;;12.07;100.00;100001.91;680658;28;1384;-62
2023/05/10 01:05:15;;;;;;;11.43;6.60;;;;;;;12.05;100.00;99996.69;683425;28;1316;-62
2023/05/10 01:05:35;;;;;;;12.40;6.70;;;;;;;12.03;100.00;99997.63;684369;28;1437;-62
2023/05/10 01:05:56;;;;;;;13.13;6.70;;;;;;;12.10;100.00;99996.59;683849;28;1229;-62
2023/05/10 01:06:16;;;;;;;12.13;6.60;;;;;;;12.09;100.00;99994.88;687762;28;1415;-62
2023/05/10 01:06:36;;;;;;;12.27;6.70;;;;;;;12.09;100.00;99993.13;687533;28;1335;-61
2023/05/10 01:06:57;;;;;;;13.13;6.73;;;;;;;12.07;100.00;99996.66;685723;28;1581;-61
2023/05/10 01:07:20;;;;;;;11.63;6.43;;;;;;;12.04;100.00;99994.97;686784;28;4306;-62
2023/05/10 01:07:40;;;;;;;11.43;6.45;;;;;;;12.03;100.00;100001.13;687025;28;1370;-62
2023/05/10 01:08:02;;;;;;;12.10;6.43;;;;;;;12.05;100.00;99998.47;685748;28;1654;-62
2023/05/10 01:08:25;;;;;;;11.93;6.68;;;;;;;12.03;100.00;99995.00;689440;28;1310;-62
2023/05/10 01:08:47;;;;;;;11.18;6.35;;;;;;;12.02;100.00;99998.53;689154;28;1164;-62
2023/05/10 01:09:07;;;;;;;10.63;6.18;;;;;;;12.00;100.00;100003.78;685965;28;1406;-62
2023/05/10 01:09:30;;;;;;;12.73;6.43;;;;;;;12.04;100.00;99991.50;689457;28;1299;-62
2023/05/10 01:09:51;;;;;;;13.95;6.72;;;;;;;12.08;100.00;100003.63;686695;28;1200;-62
2023/05/10 01:10:11;;;;;;;12.95;6.57;;;;;;;12.07;100.00;100002.78;686255;28;4368;-62
2023/05/10 01:10:32;;;;;;;11.60;6.67;;;;;;;12.05;100.00;100001.09;687250;28;1251;-62
2023/05/10 01:10:52;;;;;;;12.60;6.80;;;;;;;12.08;100.00;99999.25;686126;28;1655;-62
2023/05/10 01:11:13;;;;;;;12.15;6.75;;;;;;;12.17;100.00;100005.19;687092;28;1370;-62
2023/05/10 01:11:38;;;;;;;12.43;6.80;;;;;;;12.11;100.00;100000.94;685611;28;1339;-62
2023/05/10 01:12:00;;;;;;;11.82;6.70;;;;;;;12.13;100.00;100006.16;685375;28;1486;-61
2023/05/10 01:12:21;;;;;;;12.25;6.95;;;;;;;12.17;100.00;100000.81;680655;28;2028;-62
2023/05/10 01:12:45;;;;;;;12.98;6.95;;;;;;;12.21;100.00;99999.88;681526;29;1420;-62
2023/05/10 01:13:06;;;;;;;13.65;6.95;;;;;;;12.21;100.00;99993.75;678321;28;4455;-62
2023/05/10 01:13:31;;;;;;;12.57;6.60;;;;;;;12.24;100.00;100007.66;678035;29;1253;-61
2023/05/10 01:13:57;;;;;;;11.32;6.65;;;;;;;12.25;100.00;100001.53;678625;28;1565;-62
2023/05/10 01:14:19;;;;;;;11.02;6.72;;;;;;;12.25;100.00;99998.03;685475;28;1271;-62
2023/05/10 01:14:40;;;;;;;11.77;6.63;;;;;;;12.21;100.00;99997.25;687301;28;1346;-62
2023/05/10 01:15:01;;;;;;;11.32;6.53;;;;;;;12.19;100.00;99995.56;683077;28;1247;-62
2023/05/10 01:15:22;;;;;;;11.27;6.70;;;;;;;12.22;100.00;100000.72;680373;29;1443;-62
2023/05/10 01:15:42;;;;;;;10.50;6.47;;;;;;;12.17;100.00;100006.06;679887;29;1416;-62
2023/05/10 01:16:03;;;;;;;11.43;6.55;;;;;;;12.22;100.00;99995.47;677076;29;4622;-60
2023/05/10 01:16:25;;;;;;;12.75;6.32;;;;;;;12.23;100.00;100003.28;679113;29;1142;-62
2023/05/10 01:16:47;;;;;;;12.20;6.78;;;;;;;12.17;100.00;100000.81;679200;29;1237;-63
2023/05/10 01:17:09;;;;;;;11.80;6.55;;;;;;;12.16;100.00;100003.50;679279;28;1444;-61
2023/05/10 01:17:30;;;;;;;11.63;6.53;;;;;;;12.09;100.00;99994.88;683885;28;1244;-62
2023/05/10 01:17:52;;;;;;;12.18;6.45;;;;;;;12.12;100.00;100005.28;684394;28;1129;-61
2023/05/10 01:18:12;;;;;;;11.77;6.68;;;;;;;12.15;100.00;99999.97;686198;28;1421;-62
2023/05/10 01:18:36;;;;;;;12.60;6.70;;;;;;;12.11;100.00;100000.94;685268;28;1283;-62
2023/05/10 01:18:56;;;;;;;12.07;6.60;;;;;;;12.07;100.00;100005.41;682764;28;1468;-62
2023/05/10 01:19:22;;;;;;;10.93;6.30;;;;;;;12.04;100.00;100004.59;686582;28;4781;-62
2023/05/10 01:19:42;;;;;;;12.60;6.70;;;;;;;11.96;100.00;100002.13;685922;28;1477;-62
2023/05/10 01:20:06;;;;;;;12.30;6.82;;;;;;;11.99;100.00;100001.19;682829;28;1688;-62
2023/05/10 01:20:32;;;;;;;11.27;6.53;;;;;;;12.02;100.00;100003.78;686052;28;1030;-62
2023/05/10 01:21:18;;;;;;;11.23;5.93;;;;;;;12.15;100.00;100009.63;685555;28;2578;-62
2023/05/10 01:21:57;;;;;;;11.57;6.38;;;;;;;12.08;100.00;100006.25;686954;28;1261;-62
2023/05/10 01:22:35;;;;;;;13.15;7.10;;;;;;;12.01;100.00;100000.28;686203;28;4276;-62
2023/05/10 01:23:16;;;;;;;11.88;6.82;;;;;;;11.93;100.00;100005.66;682686;28;1684;-62
2023/05/10 01:24:11;;;;;;;11.60;6.88;;;;;;;11.99;100.00;100001.19;683157;28;2580;-62
2023/05/10 01:24:39;;;;;;;12.77;6.85;;;;;;;12.06;100.00;100008.91;681704;29;1335;-62
2023/05/10 01:25:34;;;;;;;12.48;6.60;;;;;;;12.16;100.00;99996.47;680273;28;1638;-61
2023/05/10 01:26:20;;;;;;;11.27;6.15;;;;;;;12.06;100.00;99997.59;682298;28;4918;-62
2023/05/10 01:27:01;;;;;;;12.25;6.50;;;;;;;12.06;100.00;100000.22;687051;28;1369;-62
2023/05/10 01:27:37;;;;;;;11.60;6.35;;;;;;;12.08;100.00;99995.78;689697;28;1391;-61
2023/05/10 01:28:06;;;;;;;11.15;6.80;;;;;;;12.09;100.00;99997.50;687036;28;1611;-61
2023/05/10 01:28:53;;;;;;;12.32;6.53;;;;;;;12.03;100.00;99998.50;690244;28;1231;-62
2023/05/10 01:29:35;;;;;;;12.18;6.35;;;;;;;12.02;100.00;100002.00;690788;28;1367;-62
2023/05/10 01:30:23;;;;;;;11.57;6.70;;;;;;;12.01;100.00;99999.44;690151;28;1635;-62
2023/05/10 01:31:11;;;;;;;13.05;6.85;;;;;;;11.91;100.00;100003.97;689651;28;1128;-62
2023/05/10 01:32:08;;;;;;;11.75;6.60;;;;;;;11.95;100.00;99999.53;684978;28;6331;-62
2023/05/10 01:32:39;;;;;;;15.13;7.28;;;;;;;11.92;100.00;99998.69;684692;28;1612;-63
2023/05/10 01:33:06;;;;;;;12.88;6.88;;;;;;;12.01;100.00;99995.03;683481;28;1424;-62
2023/05/10 01:33:32;;;;;;;11.95;6.40;;;;;;;12.08;100.00;100003.63;687902;28;1314;-62
2023/05/10 01:34:01;;;;;;;12.38;6.30;;;;;;;12.03;100.00;100006.38;687032;28;1565;-62
2023/05/10 01:34:27;;;;;;;12.55;6.55;;;;;;;11.98;100.00;99999.50;686122;28;4376;-62
2023/05/10 01:34:59;;;;;;;13.32;6.63;;;;;;;11.95;100.00;100002.16;684165;28;1509;-62
2023/05/10 01:35:43;;;;;;;11.82;6.63;;;;;;;11.91;100.00;99998.72;680549;28;1355;-62
2023/05/10 01:36:06;;;;;;;12.27;6.75;;;;;;;11.95;100.00;100000.44;681507;28;1974;-61
2023/05/10 01:36:34;;;;;;;11.60;6.45;;;;;;;12.00;100.00;100002.94;687491;28;1384;-62
2023/05/10 01:37:02;;;;;;;11.45;6.78;;;;;;;11.99;100.00;100006.44;686123;28;1622;-62
2023/05/10 01:37:35;;;;;;;11.10;6.18;;;;;;;11.94;100.00;100001.31;687167;28;4791;-61
2023/05/10 01:38:14;;;;;;;12.07;6.47;;;;;;;11.87;100.00;100005.78;686415;28;1518;-62
2023/05/10 01:38:46;;;;;;;11.50;6.72;;;;;;;11.90;100.00;100008.31;684463;28;1280;-61
2023/05/10 01:39:32;;;;;;;12.38;6.50;;;;;;;11.89;100.00;100006.63;683223;28;1474;-62
2023/05/10 01:40:02;;;;;;;10.57;6.20;;;;;;;11.86;100.00;100009.28;681566;28;1648;-61
2023/05/10 01:40:29;;;;;;;11.23;6.55;;;;;;;11.94;100.00;100009.16;685159;28;4962;-62
2023/05/10 01:41:12;;;;;;;11.48;6.18;;;;;;;12.03;100.00;100008.09;683253;28;1206;-63
2023/05/10 01:41:52;;;;;;;11.20;6.47;;;;;;;11.98;100.00;100007.38;678885;29;1347;-62
2023/05/10 01:42:19;;;;;;;11.63;6.32;;;;;;;12.00;100.00;100008.19;678081;29;5126;-62
2023/05/10 01:42:49;;;;;;;11.13;6.63;;;;;;;11.99;100.00;100006.44;686630;28;1343;-61
2023/05/10 01:43:19;;;;;;;12.20;6.95;;;;;;;12.01;100.00;100009.91;688423;28;4359;-61
2023/05/10 01:43:57;;;;;;;10.63;6.75;;;;;;;11.96;100.00;100006.50;687526;28;1264;-61
2023/05/10 01:44:24;;;;;;;10.52;6.32;;;;;;;12.02;100.00;99998.53;687674;28;1232;-61
2023/05/10 01:45:00;;;;;;;12.13;6.88;;;;;;;11.97;100.00;99998.63;687498;28;1228;-62
2023/05/10 01:45:29;;;;;;;13.18;6.80;;;;;;;11.95;100.00;100004.78;687205;28;1442;-62
2023/05/10 01:46:13;;;;;;;11.32;6.57;;;;;;;11.90;100.00;100007.47;690431;28;1228;-61
2023/05/10 01:46:37;;;;;;;11.80;6.07;;;;;;;11.88;100.00;100014.47;687290;28;5333;-61
2023/05/10 01:47:06;;;;;;;11.55;6.75;;;;;;;11.80;100.00;100006.81;684198;28;1775;-62
2023/05/10 01:47:45;;;;;;;11.48;6.95;;;;;;;11.79;100.00;100006.84;685381;28;1268;-62
2023/05/10 01:48:09;;;;;;;11.40;7.10;;;;;;;11.92;100.00;100011.78;683435;28;1425;-61
2023/05/10 01:48:31;;;;;;;10.80;6.63;;;;;;;11.93;100.00;100005.66;688608;28;1403;-61
2023/05/10 01:48:55;;;;;;;12.00;6.80;;;;;;;11.90;100.00;100003.09;689254;28;2090;-61
2023/05/10 01:49:24;;;;;;;12.52;7.28;;;;;;;11.95;100.00;99999.53;689186;28;4410;-62
2023/05/10 01:49:49;;;;;;;12.57;6.60;;;;;;;11.99;100.00;100009.06;692137;28;1314;-61
2023/05/10 01:50:24;;;;;;;13.73;6.68;;;;;;;11.93;100.00;100007.41;689996;28;1065;-61